createdAt,value
2022-08-22T00:00:21.010Z,2.03
2022-08-22T00:02:45.362Z,2.80
2022-08-22T00:02:54.492Z,4.90
2022-08-22T00:02:58.022Z,2.55
2022-08-22T00:03:02.492Z,3.67
2022-08-22T00:03:15.977Z,1.90
2022-08-22T00:05:17.446Z,2.10
2022-08-22T00:07:37.842Z,2.10
2022-08-22T00:10:01.732Z,1.73
2022-08-22T00:12:24.177Z,1.63
2022-08-22T00:14:50.001Z,2.25
2022-08-22T00:17:22.289Z,2.13
2022-08-22T00:19:56.072Z,2.20
2022-08-22T00:22:08.729Z,2.00
2022-08-22T00:24:19.562Z,1.88
2022-08-22T00:26:31.796Z,2.08
2022-08-22T00:29:00.416Z,2.22
2022-08-22T00:31:35.673Z,2.20
2022-08-22T00:34:02.086Z,2.55
2022-08-22T00:36:13.918Z,2.13
2022-08-22T00:38:27.586Z,2.08
2022-08-22T00:40:44.389Z,2.08
2022-08-22T00:43:04.286Z,2.20
2022-08-22T00:45:26.054Z,2.53
2022-08-22T00:47:45.252Z,3.17
2022-08-22T00:50:07.047Z,2.72
2022-08-22T00:52:38.505Z,2.70
2022-08-22T00:55:13.731Z,2.58
2022-08-22T00:57:40.283Z,2.58
2022-08-22T01:00:03.452Z,2.90
2022-08-22T01:02:23.818Z,2.47
2022-08-22T01:04:50.163Z,2.88
2022-08-22T01:07:18.047Z,3.13
2022-08-22T01:09:58.933Z,2.80
2022-08-22T01:12:15.471Z,2.90
2022-08-22T01:14:35.666Z,3.17
2022-08-22T01:16:55.364Z,2.72
2022-08-22T01:19:34.734Z,2.97
2022-08-22T01:22:00.566Z,3.17
2022-08-22T01:24:08.199Z,3.50
2022-08-22T01:26:42.695Z,3.70
2022-08-22T01:29:01.438Z,3.88
2022-08-22T01:31:38.339Z,2.85
2022-08-22T01:34:04.572Z,2.90
2022-08-22T01:36:27.748Z,3.50
2022-08-22T01:38:54.773Z,4.25
2022-08-22T01:41:31.488Z,3.33
2022-08-22T01:44:14.328Z,3.80
2022-08-22T01:46:37.861Z,3.53
2022-08-22T01:48:42.404Z,3.10
2022-08-22T01:50:53.435Z,3.40
2022-08-22T01:53:01.087Z,3.33
2022-08-22T01:55:13.866Z,4.78
2022-08-22T01:57:17.228Z,3.55
2022-08-22T01:59:34.289Z,3.95
2022-08-22T02:01:46.681Z,3.63
2022-08-22T02:04:14.679Z,3.83
2022-08-22T02:06:23.133Z,4.22
2022-08-22T02:08:54.282Z,3.83
2022-08-22T02:11:09.902Z,4.43
2022-08-22T02:13:42.264Z,3.58
2022-08-22T02:15:53.852Z,3.92
2022-08-22T02:18:07.863Z,3.88
2022-08-22T02:20:31.805Z,3.80
2022-08-22T02:22:37.266Z,3.58
2022-08-22T02:25:03.355Z,3.90
2022-08-22T02:27:27.165Z,3.67
2022-08-22T02:29:48.771Z,4.03
2022-08-22T02:32:26.121Z,4.15
2022-08-22T02:34:43.766Z,3.83
2022-08-22T02:36:58.095Z,4.10
2022-08-22T02:39:11.924Z,3.90
2022-08-22T02:41:19.821Z,3.60
2022-08-22T02:43:36.279Z,3.70
2022-08-22T02:45:47.065Z,3.25
2022-08-22T02:48:15.190Z,3.00
2022-08-22T02:50:23.902Z,3.25
2022-08-22T02:52:33.782Z,2.92
2022-08-22T02:54:53.759Z,3.28
2022-08-22T02:57:06.739Z,3.58
2022-08-22T02:59:30.032Z,3.63
2022-08-22T03:01:31.744Z,3.55
2022-08-22T03:03:39.179Z,3.67
2022-08-22T03:05:40.930Z,3.10
2022-08-22T03:07:50.420Z,4.38
2022-08-22T03:10:13.385Z,3.55
2022-08-22T03:12:43.493Z,3.20
2022-08-22T03:14:50.995Z,4.28
2022-08-22T03:16:57.275Z,3.38
2022-08-22T03:19:18.924Z,3.80
2022-08-22T03:21:50.829Z,3.60
2022-08-22T03:24:00.320Z,4.10
2022-08-22T03:26:29.127Z,3.72
2022-08-22T03:28:37.279Z,4.45
2022-08-22T03:31:13.049Z,4.18
2022-08-22T03:33:19.497Z,4.40
2022-08-22T03:35:50.608Z,6.10
2022-08-22T03:38:11.730Z,4.20
2022-08-22T03:40:31.479Z,4.50
2022-08-22T03:43:00.938Z,4.43
2022-08-22T03:45:08.499Z,3.97
2022-08-22T03:47:38.250Z,4.78
2022-08-22T03:49:59.388Z,5.18
2022-08-22T03:52:39.289Z,5.90
2022-08-22T03:55:21.021Z,4.53
2022-08-22T03:57:51.871Z,4.78
2022-08-22T04:00:37.956Z,5.30
2022-08-22T04:02:55.775Z,4.60
2022-08-22T04:05:16.317Z,4.65
2022-08-22T04:07:31.431Z,5.70
2022-08-22T04:09:52.611Z,5.55
2022-08-22T04:12:09.526Z,4.93
2022-08-22T04:14:46.949Z,5.60
2022-08-22T04:17:15.569Z,6.18
2022-08-22T04:19:29.837Z,5.47
2022-08-22T04:21:45.866Z,4.85
2022-08-22T04:24:14.120Z,4.90
2022-08-22T04:26:26.701Z,5.45
2022-08-22T04:28:50.129Z,5.95
2022-08-22T04:31:09.117Z,5.20
2022-08-22T04:33:19.130Z,4.93
2022-08-22T04:35:32.996Z,4.65
2022-08-22T04:37:49.781Z,4.45
2022-08-22T04:39:53.631Z,4.80
2022-08-22T04:42:31.797Z,10.32
2022-08-22T04:45:00.334Z,8.45
2022-08-22T04:47:23.017Z,7.30
2022-08-22T04:49:43.244Z,6.00
2022-08-22T04:51:57.785Z,5.50
2022-08-22T04:54:18.131Z,6.18
2022-08-22T04:56:48.527Z,5.60
2022-08-22T04:59:03.710Z,6.40
2022-08-22T05:01:23.614Z,5.88
2022-08-22T05:03:29.156Z,5.30
2022-08-22T05:05:38.191Z,6.13
2022-08-22T05:07:52.698Z,5.88
2022-08-22T05:10:09.263Z,6.63
2022-08-22T05:12:20.278Z,6.63
2022-08-22T05:14:32.449Z,6.35
2022-08-22T05:16:40.052Z,7.97
2022-08-22T05:18:50.622Z,7.15
2022-08-22T05:20:53.976Z,7.53
2022-08-22T05:23:01.786Z,7.25
2022-08-22T05:25:12.985Z,7.35
2022-08-22T05:27:20.500Z,6.85
2022-08-22T05:29:27.536Z,7.15
2022-08-22T05:31:35.430Z,7.43
2022-08-22T05:33:41.070Z,9.68
2022-08-22T05:35:50.213Z,8.43
2022-08-22T05:37:56.353Z,6.43
2022-08-22T05:40:00.810Z,6.68
2022-08-22T05:42:04.004Z,6.78
2022-08-22T05:44:15.152Z,7.68
2022-08-22T05:46:34.853Z,7.32
2022-08-22T05:48:51.306Z,7.03
2022-08-22T05:50:59.536Z,10.13
2022-08-22T05:53:10.290Z,8.20
2022-08-22T05:55:38.721Z,8.25
2022-08-22T05:57:46.588Z,8.18
2022-08-22T05:59:53.453Z,7.90
2022-08-22T06:02:13.938Z,7.85
2022-08-22T06:04:36.338Z,8.95
2022-08-22T06:06:51.320Z,9.35
2022-08-22T06:09:01.473Z,9.27
2022-08-22T06:11:15.671Z,9.38
2022-08-22T06:13:34.403Z,9.38
2022-08-22T06:15:58.359Z,8.82
2022-08-22T06:18:05.611Z,8.73
2022-08-22T06:20:09.805Z,9.50
2022-08-22T06:22:18.734Z,9.73
2022-08-22T06:24:25.401Z,11.57
2022-08-22T06:26:35.990Z,11.05
2022-08-22T06:28:55.051Z,10.63
2022-08-22T06:30:59.265Z,9.07
2022-08-22T06:33:05.867Z,8.93
2022-08-22T06:35:15.576Z,8.90
2022-08-22T06:37:25.432Z,10.07
2022-08-22T06:39:35.621Z,13.30
2022-08-22T06:41:52.674Z,11.68
2022-08-22T06:43:57.487Z,11.20
2022-08-22T06:46:00.774Z,9.05
2022-08-22T06:48:05.724Z,9.57
2022-08-22T06:50:21.194Z,8.65
2022-08-22T06:52:26.957Z,8.20
2022-08-22T06:54:39.637Z,9.13
2022-08-22T06:56:44.494Z,8.75
2022-08-22T06:58:52.163Z,9.05
2022-08-22T07:01:04.013Z,8.35
2022-08-22T07:03:25.909Z,8.10
2022-08-22T07:05:35.394Z,7.50
2022-08-22T07:07:37.264Z,7.05
2022-08-22T07:09:41.541Z,7.72
2022-08-22T07:11:43.639Z,7.72
2022-08-22T07:13:56.438Z,6.95
2022-08-22T07:15:59.661Z,7.45
2022-08-22T07:18:06.792Z,6.22
2022-08-22T07:20:31.077Z,6.57
2022-08-22T07:24:36.343Z,7.28
2022-08-22T07:27:30.808Z,7.22
2022-08-22T07:29:58.640Z,6.73
2022-08-22T07:32:03.038Z,6.72
2022-08-22T07:34:34.277Z,5.82
2022-08-22T07:37:06.153Z,7.38
2022-08-22T07:39:44.337Z,6.75
2022-08-22T07:42:08.677Z,6.63
2022-08-22T07:44:21.681Z,6.68
2022-08-22T07:46:34.168Z,7.20
2022-08-22T07:49:07.703Z,7.45
2022-08-22T07:51:16.131Z,7.20
2022-08-22T07:53:30.237Z,7.20
2022-08-22T07:55:32.621Z,6.78
2022-08-22T07:57:41.555Z,6.68
2022-08-22T07:59:48.366Z,7.20
2022-08-22T08:01:57.099Z,6.90
2022-08-22T08:04:02.613Z,6.72
2022-08-22T08:06:05.157Z,7.03
2022-08-22T08:08:15.963Z,7.30
2022-08-22T08:10:25.761Z,7.65
2022-08-22T08:12:40.558Z,8.00
2022-08-22T08:14:46.284Z,8.18
2022-08-22T08:17:03.103Z,6.68
2022-08-22T08:19:06.283Z,6.60
2022-08-22T08:21:15.031Z,7.20
2022-08-22T08:23:17.222Z,10.18
2022-08-22T08:25:31.135Z,8.63
2022-08-22T08:27:38.295Z,9.35
2022-08-22T08:29:48.981Z,8.80
2022-08-22T08:31:50.981Z,6.80
2022-08-22T08:34:02.003Z,7.72
2022-08-22T08:36:41.143Z,8.55
2022-08-22T08:38:55.630Z,8.55
2022-08-22T08:41:22.496Z,5.90
2022-08-22T08:43:49.110Z,6.50
2022-08-22T08:46:22.470Z,7.22
2022-08-22T08:48:42.958Z,5.88
2022-08-22T08:51:08.224Z,6.20
2022-08-22T08:53:48.737Z,6.13
2022-08-22T08:56:17.808Z,5.82
2022-08-22T08:58:36.178Z,5.88
2022-08-22T09:00:42.983Z,5.97
2022-08-22T09:03:12.322Z,6.15
2022-08-22T09:05:29.655Z,5.90
2022-08-22T09:07:40.194Z,5.88
2022-08-22T09:09:52.311Z,5.57
2022-08-22T09:12:21.412Z,6.03
2022-08-22T09:14:49.989Z,5.70
2022-08-22T09:17:00.628Z,6.63
2022-08-22T09:19:02.352Z,6.03
2022-08-22T09:21:10.150Z,5.85
2022-08-22T09:23:48.155Z,6.03
2022-08-22T09:25:59.461Z,6.68
2022-08-22T09:28:28.345Z,7.20
2022-08-22T09:31:32.626Z,6.35
2022-08-22T09:33:54.144Z,6.22
2022-08-22T09:36:17.416Z,6.90
2022-08-22T09:38:33.332Z,6.88
2022-08-22T09:40:47.889Z,6.40
2022-08-22T09:43:00.883Z,7.35
2022-08-22T09:45:11.494Z,6.28
2022-08-22T09:47:47.146Z,7.40
2022-08-22T09:50:02.785Z,6.28
2022-08-22T09:52:33.085Z,6.13
2022-08-22T09:54:36.758Z,6.07
2022-08-22T09:56:55.853Z,6.20
2022-08-22T09:59:05.115Z,5.88
2022-08-22T10:01:23.929Z,8.02
2022-08-22T10:03:28.707Z,6.05
2022-08-22T10:05:44.342Z,7.35
2022-08-22T10:08:11.980Z,6.40
2022-08-22T10:10:21.377Z,5.85
2022-08-22T10:12:48.366Z,6.75
2022-08-22T10:15:10.253Z,7.05
2022-08-22T10:17:25.699Z,6.70
2022-08-22T10:19:50.412Z,6.68
2022-08-22T10:22:30.183Z,8.15
2022-08-22T10:24:51.165Z,6.43
2022-08-22T10:26:56.486Z,6.65
2022-08-22T10:29:16.961Z,5.90
2022-08-22T10:31:25.478Z,6.50
2022-08-22T10:33:36.462Z,6.13
2022-08-22T10:35:44.479Z,6.28
2022-08-22T10:37:57.212Z,6.97
2022-08-22T10:40:05.345Z,6.50
2022-08-22T10:42:25.514Z,6.22
2022-08-22T10:44:47.718Z,6.68
2022-08-22T10:46:54.914Z,6.50
2022-08-22T10:49:05.774Z,6.63
2022-08-22T10:51:40.998Z,6.90
2022-08-22T10:54:07.901Z,6.00
2022-08-22T10:56:27.669Z,7.18
2022-08-22T10:58:36.728Z,7.20
2022-08-22T11:00:53.804Z,6.32
2022-08-22T11:03:26.427Z,7.05
2022-08-22T11:05:42.027Z,6.47
2022-08-22T11:07:56.902Z,6.38
2022-08-22T11:10:09.340Z,6.88
2022-08-22T11:12:34.885Z,6.05
2022-08-22T11:15:04.761Z,6.10
2022-08-22T11:17:40.661Z,6.10
2022-08-22T11:20:16.998Z,6.13
2022-08-22T11:22:24.721Z,5.90
2022-08-22T11:24:34.848Z,6.97
2022-08-22T11:26:47.013Z,6.53
2022-08-22T11:29:02.792Z,6.03
2022-08-22T11:31:51.409Z,6.65
2022-08-22T11:34:10.306Z,6.53
2022-08-22T11:36:30.874Z,6.30
2022-08-22T11:39:01.435Z,5.90
2022-08-22T11:41:13.164Z,6.38
2022-08-22T11:43:36.155Z,6.00
2022-08-22T11:45:46.940Z,6.93
2022-08-22T11:48:27.563Z,6.60
2022-08-22T11:50:32.302Z,6.38
2022-08-22T11:53:04.591Z,6.00
2022-08-22T11:55:15.596Z,6.38
2022-08-22T11:57:36.328Z,5.50
2022-08-22T12:00:15.302Z,5.53
2022-08-22T12:02:40.661Z,6.10
2022-08-22T12:04:49.350Z,5.93
2022-08-22T12:07:15.806Z,6.07
2022-08-22T12:09:45.110Z,6.38
2022-08-22T12:12:13.950Z,6.03
2022-08-22T12:14:34.185Z,5.65
2022-08-22T12:17:28.487Z,6.90
2022-08-22T12:20:14.977Z,6.35
2022-08-22T12:22:33.521Z,7.20
2022-08-22T12:24:53.476Z,6.55
2022-08-22T12:27:01.560Z,5.90
2022-08-22T12:29:27.448Z,6.68
2022-08-22T12:31:38.535Z,6.30
2022-08-22T12:33:43.263Z,7.43
2022-08-22T12:35:45.266Z,6.88
2022-08-22T12:38:28.580Z,6.50
2022-08-22T12:40:50.353Z,6.53
2022-08-22T12:43:27.538Z,7.15
2022-08-22T12:46:31.616Z,7.40
2022-08-22T12:48:59.640Z,6.70
2022-08-22T12:51:23.204Z,7.00
2022-08-22T12:53:58.567Z,6.55
2022-08-22T12:56:18.586Z,7.05
2022-08-22T12:58:33.870Z,7.30
2022-08-22T13:00:39.935Z,6.40
2022-08-22T13:02:45.180Z,6.80
2022-08-22T13:07:34.579Z,7.43
2022-08-22T13:09:46.188Z,6.50
2022-08-22T13:11:53.678Z,7.07
2022-08-22T13:14:02.219Z,6.35
2022-08-22T13:16:13.886Z,6.65
2022-08-22T13:18:29.987Z,7.05
2022-08-22T13:20:39.976Z,7.03
2022-08-22T13:22:46.037Z,7.32
2022-08-22T13:25:04.720Z,7.32
2022-08-22T13:27:15.889Z,9.68
2022-08-22T13:29:27.470Z,10.43
2022-08-22T13:31:43.625Z,7.35
2022-08-22T13:33:46.384Z,6.80
2022-08-22T13:36:14.336Z,7.63
2022-08-22T13:38:25.717Z,7.72
2022-08-22T13:40:31.409Z,7.60
2022-08-22T13:42:39.995Z,6.68
2022-08-22T13:44:50.373Z,5.72
2022-08-22T13:47:13.614Z,6.30
2022-08-22T13:49:33.307Z,6.43
2022-08-22T13:52:01.617Z,5.70
2022-08-22T13:54:40.176Z,6.07
2022-08-22T13:56:50.825Z,5.78
2022-08-22T13:59:06.170Z,5.53
2022-08-22T14:01:28.426Z,5.90
2022-08-22T14:04:32.254Z,5.00
2022-08-22T14:06:47.316Z,5.80
2022-08-22T14:08:50.675Z,5.53
2022-08-22T14:11:31.441Z,7.32
2022-08-22T14:13:45.127Z,5.50
2022-08-22T14:15:48.707Z,5.82
2022-08-22T14:18:00.551Z,7.15
2022-08-22T14:20:33.515Z,5.70
2022-08-22T14:22:39.136Z,5.07
2022-08-22T14:24:58.023Z,5.80
2022-08-22T14:27:05.120Z,5.43
2022-08-22T14:29:14.954Z,5.65
2022-08-22T14:31:24.054Z,5.50
2022-08-22T14:33:39.894Z,6.72
2022-08-22T14:35:52.678Z,5.50
2022-08-22T14:38:18.034Z,6.22
2022-08-22T14:40:30.341Z,5.90
2022-08-22T14:42:49.584Z,5.63
2022-08-22T14:45:06.538Z,6.10
2022-08-22T14:47:55.610Z,5.40
2022-08-22T14:49:49.678Z,6.63
2022-08-22T14:52:05.537Z,5.88
2022-08-22T14:54:28.904Z,5.68
2022-08-22T14:56:32.222Z,5.82
2022-08-22T14:58:49.707Z,6.18
2022-08-22T15:00:54.096Z,5.75
2022-08-22T15:03:33.118Z,6.00
2022-08-22T15:05:46.203Z,7.50
2022-08-22T15:07:56.173Z,7.20
2022-08-22T15:10:33.147Z,6.97
2022-08-22T15:12:40.718Z,6.78
2022-08-22T15:14:48.949Z,7.22
2022-08-22T15:17:01.145Z,6.75
2022-08-22T15:19:21.071Z,6.93
2022-08-22T15:21:32.890Z,6.20
2022-08-22T15:23:45.123Z,7.63
2022-08-22T15:26:24.363Z,6.57
2022-08-22T15:28:27.693Z,6.70
2022-08-22T15:31:03.802Z,6.50
2022-08-22T15:33:22.514Z,6.80
2022-08-22T15:35:31.450Z,6.60
2022-08-22T15:37:53.465Z,15.48
2022-08-22T15:40:27.544Z,12.40
2022-08-22T15:42:56.624Z,13.18
2022-08-22T15:45:01.493Z,13.82
2022-08-22T15:47:12.097Z,13.45
2022-08-22T15:49:29.712Z,9.57
2022-08-22T15:51:38.598Z,7.13
2022-08-22T15:54:26.900Z,8.77
2022-08-22T15:56:34.646Z,7.63
2022-08-22T15:58:37.523Z,6.70
2022-08-22T16:01:02.650Z,7.55
2022-08-22T16:03:10.781Z,7.95
2022-08-22T16:05:12.963Z,7.38
2022-08-22T16:07:26.735Z,6.80
2022-08-22T16:11:55.231Z,6.88
2022-08-22T16:14:35.703Z,6.78
2022-08-22T16:17:00.985Z,8.15
2022-08-22T16:19:02.661Z,8.45
2022-08-22T16:21:10.765Z,7.60
2022-08-22T16:23:12.578Z,8.15
2022-08-22T16:25:16.273Z,13.27
2022-08-22T16:27:26.105Z,14.35
2022-08-22T16:29:31.780Z,14.43
2022-08-22T16:31:59.642Z,15.23
2022-08-22T16:34:26.721Z,13.50
2022-08-22T16:36:48.883Z,13.43
2022-08-22T16:38:53.629Z,13.30
2022-08-22T16:40:55.624Z,10.93
2022-08-22T16:43:15.343Z,9.00
2022-08-22T16:45:17.047Z,6.88
2022-08-22T16:47:21.766Z,6.50
2022-08-22T16:49:30.620Z,6.28
2022-08-22T16:51:32.400Z,6.50
2022-08-22T16:53:45.760Z,6.55
2022-08-22T16:56:08.508Z,6.85
2022-08-22T16:58:57.921Z,6.95
2022-08-22T17:01:51.061Z,8.93
2022-08-22T17:04:41.599Z,8.95
2022-08-22T17:07:07.814Z,12.70
2022-08-22T17:09:40.549Z,13.48
2022-08-22T17:11:58.480Z,11.90
2022-08-22T17:14:00.220Z,10.30
2022-08-22T17:16:23.935Z,7.22
2022-08-22T17:19:10.654Z,6.68
2022-08-22T17:21:38.799Z,9.27
2022-08-22T17:24:02.052Z,11.35
2022-08-22T17:26:18.330Z,11.63
2022-08-22T17:28:35.319Z,11.05
2022-08-22T17:30:50.889Z,8.27
2022-08-22T17:33:11.764Z,8.65
2022-08-22T17:35:36.066Z,6.80
2022-08-22T17:37:50.673Z,7.93
2022-08-22T17:40:24.272Z,5.82
2022-08-22T17:42:51.965Z,6.53
2022-08-22T17:45:15.431Z,7.05
2022-08-22T17:47:22.215Z,10.25
2022-08-22T17:49:33.370Z,8.52
2022-08-22T17:51:38.094Z,7.43
2022-08-22T17:53:50.263Z,7.07
2022-08-22T17:55:54.608Z,7.55
2022-08-22T17:58:37.957Z,8.13
2022-08-22T18:00:54.539Z,7.20
2022-08-22T18:03:08.376Z,9.15
2022-08-22T18:07:26.521Z,6.85
2022-08-22T18:09:39.979Z,7.07
2022-08-22T18:11:45.851Z,6.25
2022-08-22T18:14:05.105Z,5.70
2022-08-22T18:16:19.532Z,6.05
2022-08-22T18:18:30.377Z,6.65
2022-08-22T18:20:44.925Z,7.93
2022-08-22T18:22:52.917Z,7.30
2022-08-22T18:25:10.954Z,7.90
2022-08-22T18:27:34.055Z,8.85
2022-08-22T18:29:49.105Z,13.57
2022-08-22T18:32:00.136Z,14.85
2022-08-22T18:34:18.940Z,15.73
2022-08-22T18:36:33.041Z,16.15
2022-08-22T18:39:01.587Z,13.73
2022-08-22T18:41:15.922Z,14.43
2022-08-22T18:43:20.903Z,12.40
2022-08-22T18:45:44.490Z,13.27
2022-08-22T18:47:55.513Z,9.93
2022-08-22T18:49:57.839Z,9.57
2022-08-22T18:52:05.411Z,5.28
2022-08-22T18:54:07.193Z,6.47
2022-08-22T18:56:18.661Z,5.88
2022-08-22T18:58:49.398Z,4.97
2022-08-22T19:01:22.331Z,4.55
2022-08-22T19:03:51.894Z,4.15
2022-08-22T19:06:29.276Z,3.42
2022-08-22T19:08:53.052Z,3.53
2022-08-22T19:11:01.258Z,3.50
2022-08-22T19:13:21.296Z,3.72
2022-08-22T19:15:32.120Z,4.18
2022-08-22T19:18:03.229Z,4.25
2022-08-22T19:20:35.285Z,4.15
2022-08-22T19:22:37.530Z,5.47
2022-08-22T19:24:58.165Z,4.15
2022-08-22T19:27:18.746Z,3.80
2022-08-22T19:29:20.535Z,3.80
2022-08-22T19:31:24.568Z,4.40
2022-08-22T19:33:37.557Z,5.18
2022-08-22T19:35:44.117Z,3.80
2022-08-22T19:37:56.572Z,4.45
2022-08-22T19:40:01.889Z,5.25
2022-08-22T19:42:03.945Z,3.60
2022-08-22T19:44:11.497Z,4.07
2022-08-22T19:46:13.562Z,4.50
2022-08-22T19:48:15.827Z,3.72
2022-08-22T19:50:18.017Z,4.28
2022-08-22T19:52:53.715Z,4.15
2022-08-22T19:55:14.126Z,4.07
2022-08-22T19:57:34.284Z,4.82
2022-08-22T19:59:50.402Z,4.00
2022-08-22T20:02:15.645Z,4.15
2022-08-22T20:04:35.308Z,4.30
2022-08-22T20:06:52.261Z,4.75
2022-08-22T20:09:39.040Z,3.60
2022-08-22T20:11:46.056Z,3.42
2022-08-22T20:13:48.100Z,3.90
2022-08-22T20:16:07.223Z,3.58
2022-08-22T20:18:46.685Z,4.03
2022-08-22T20:20:36.985Z,4.35
2022-08-22T20:22:38.669Z,4.75
2022-08-22T20:24:45.811Z,4.22
2022-08-22T20:27:12.077Z,4.10
2022-08-22T20:29:12.652Z,4.15
2022-08-22T20:31:27.145Z,4.13
2022-08-22T20:33:34.550Z,4.55
2022-08-22T20:35:40.871Z,4.35
2022-08-22T20:38:05.813Z,4.68
2022-08-22T20:40:55.463Z,4.50
2022-08-22T20:43:00.637Z,4.60
2022-08-22T20:45:12.277Z,4.10
2022-08-22T20:47:21.275Z,4.20
2022-08-22T20:49:35.756Z,4.65
2022-08-22T20:51:37.592Z,5.25
2022-08-22T20:53:39.460Z,5.22
2022-08-22T20:55:53.173Z,4.90
2022-08-22T20:57:58.204Z,5.10
2022-08-22T21:00:23.916Z,5.97
2022-08-22T21:03:00.394Z,5.45
2022-08-22T21:05:16.485Z,5.47
2022-08-22T21:07:28.229Z,5.30
2022-08-22T21:09:30.150Z,5.55
2022-08-22T21:11:31.919Z,5.30
2022-08-22T21:13:37.314Z,6.28
2022-08-22T21:15:54.949Z,6.00
2022-08-22T21:17:57.565Z,5.32
2022-08-22T21:20:17.414Z,4.95
2022-08-22T21:22:27.319Z,5.18
2022-08-22T21:24:30.434Z,4.80
2022-08-22T21:26:39.818Z,4.63
2022-08-22T21:29:04.650Z,5.35
2022-08-22T21:31:13.504Z,4.90
2022-08-22T21:33:23.991Z,4.97
2022-08-22T21:35:32.388Z,4.78
2022-08-22T21:37:39.283Z,4.47
2022-08-22T21:39:46.098Z,4.47
2022-08-22T21:42:07.906Z,5.07
2022-08-22T21:44:27.923Z,4.78
2022-08-22T21:46:29.875Z,4.90
2022-08-22T21:48:42.527Z,5.45
2022-08-22T21:50:44.278Z,5.00
2022-08-22T21:52:55.167Z,5.15
2022-08-22T21:55:26.509Z,4.68
2022-08-22T21:57:35.783Z,4.72
2022-08-22T21:59:52.048Z,5.00
2022-08-22T22:02:34.169Z,4.80
2022-08-22T22:04:38.301Z,5.18
2022-08-22T22:06:40.192Z,4.65
2022-08-22T22:08:41.984Z,5.03
2022-08-22T22:10:45.959Z,4.97
2022-08-22T22:12:49.329Z,4.68
2022-08-22T22:14:51.477Z,5.22
2022-08-22T22:16:53.258Z,4.97
2022-08-22T22:18:55.804Z,4.78
2022-08-22T22:20:57.989Z,5.38
2022-08-22T22:22:59.913Z,5.68
2022-08-22T22:25:01.888Z,4.72
2022-08-22T22:27:05.459Z,4.43
2022-08-22T22:31:10.665Z,4.77
2022-08-22T22:33:12.820Z,5.05
2022-08-22T22:35:15.480Z,5.03
2022-08-22T22:37:17.275Z,5.40
2022-08-22T22:39:19.180Z,6.18
2022-08-22T22:41:21.875Z,6.22
2022-08-22T22:43:23.819Z,6.07
2022-08-22T22:45:25.715Z,5.28
2022-08-22T22:47:30.336Z,5.03
2022-08-22T22:49:33.031Z,5.50
2022-08-22T22:51:34.942Z,5.47
2022-08-22T22:53:42.788Z,5.53
2022-08-22T22:55:45.539Z,5.55
2022-08-22T22:58:02.107Z,5.38
2022-08-22T23:00:06.648Z,5.05
2022-08-22T23:02:12.547Z,5.65
2022-08-22T23:04:14.296Z,4.95
2022-08-22T23:06:19.195Z,5.70
2022-08-22T23:08:20.929Z,5.63
2022-08-22T23:10:22.844Z,5.70
2022-08-22T23:12:26.006Z,5.90
2022-08-22T23:14:27.945Z,5.65
2022-08-22T23:16:34.000Z,6.55
2022-08-22T23:18:38.907Z,5.78
2022-08-22T23:20:40.659Z,6.07
2022-08-22T23:22:44.711Z,5.90
2022-08-22T23:24:46.478Z,5.80
2022-08-22T23:26:48.223Z,6.65
2022-08-22T23:28:50.121Z,5.68
2022-08-22T23:30:51.882Z,5.93
2022-08-22T23:32:53.734Z,6.28
2022-08-22T23:34:55.780Z,6.18
2022-08-22T23:37:00.370Z,6.10
2022-08-22T23:39:03.007Z,6.50
2022-08-22T23:41:09.797Z,7.53
2022-08-22T23:43:11.820Z,6.18
2022-08-22T23:45:13.589Z,5.90
2022-08-22T23:47:15.899Z,6.47
2022-08-22T23:49:17.882Z,7.63
2022-08-22T23:51:22.955Z,7.20
2022-08-22T23:53:25.091Z,6.20
2022-08-22T23:55:26.833Z,6.85
2022-08-22T23:57:29.419Z,6.35
2022-08-22T23:59:34.220Z,6.67
